createdAt,value
2022-08-21T00:00:32.659Z,17.82
2022-08-21T00:01:32.639Z,17.80
2022-08-21T00:02:32.696Z,17.85
2022-08-21T00:03:32.765Z,17.70
2022-08-21T00:04:32.616Z,17.73
2022-08-21T00:05:32.612Z,17.67
2022-08-21T00:06:32.631Z,17.73
2022-08-21T00:07:32.595Z,17.67
2022-08-21T00:08:32.609Z,17.59
2022-08-21T00:09:32.579Z,17.67
2022-08-21T00:10:32.574Z,17.59
2022-08-21T00:11:32.564Z,17.63
2022-08-21T00:12:32.556Z,17.60
2022-08-21T00:13:32.549Z,17.59
2022-08-21T00:14:32.571Z,17.63
2022-08-21T00:15:32.534Z,17.54
2022-08-21T00:16:32.526Z,17.57
2022-08-21T00:17:32.519Z,17.39
2022-08-21T00:18:32.504Z,17.37
2022-08-21T00:19:32.528Z,17.42
2022-08-21T00:20:32.492Z,17.42
2022-08-21T00:21:32.485Z,17.46
2022-08-21T00:22:32.482Z,17.39
2022-08-21T00:23:32.462Z,17.42
2022-08-21T00:24:32.486Z,17.44
2022-08-21T00:25:32.446Z,17.37
2022-08-21T00:26:32.448Z,17.39
2022-08-21T00:27:32.428Z,17.45
2022-08-21T00:28:32.422Z,17.42
2022-08-21T00:29:32.450Z,17.41
2022-08-21T00:30:32.402Z,17.39
2022-08-21T00:31:32.392Z,17.48
2022-08-21T00:32:32.388Z,17.38
2022-08-21T00:33:32.383Z,17.35
2022-08-21T00:34:32.402Z,17.33
2022-08-21T00:35:32.361Z,17.29
2022-08-21T00:36:32.356Z,17.29
2022-08-21T00:37:32.344Z,17.31
2022-08-21T00:38:32.339Z,17.29
2022-08-21T00:39:32.373Z,17.30
2022-08-21T00:40:32.324Z,17.26
2022-08-21T00:41:37.687Z,17.31
2022-08-21T00:42:33.307Z,17.27
2022-08-21T00:43:32.294Z,17.31
2022-08-21T00:44:32.333Z,17.27
2022-08-21T00:45:32.301Z,17.33
2022-08-21T00:46:32.271Z,17.22
2022-08-21T00:47:32.260Z,17.24
2022-08-21T00:48:32.254Z,17.22
2022-08-21T00:49:32.273Z,17.20
2022-08-21T00:50:32.249Z,17.14
2022-08-21T00:51:32.235Z,17.17
2022-08-21T00:52:33.228Z,17.20
2022-08-21T00:53:32.221Z,17.17
2022-08-21T00:54:32.240Z,17.14
2022-08-21T00:55:32.195Z,17.06
2022-08-21T00:56:32.192Z,17.09
2022-08-21T00:57:32.183Z,17.08
2022-08-21T00:58:32.172Z,16.98
2022-08-21T00:59:32.200Z,17.04
2022-08-21T01:00:32.165Z,17.01
2022-08-21T01:01:32.217Z,16.87
2022-08-21T01:02:32.142Z,16.94
2022-08-21T01:03:32.137Z,16.91
2022-08-21T01:04:32.159Z,16.84
2022-08-21T01:05:32.116Z,16.91
2022-08-21T01:06:32.114Z,16.94
2022-08-21T01:07:32.101Z,16.79
2022-08-21T01:08:32.089Z,16.80
2022-08-21T01:09:32.131Z,16.74
2022-08-21T01:10:32.081Z,16.65
2022-08-21T01:11:32.068Z,16.75
2022-08-21T01:12:32.066Z,16.65
2022-08-21T01:13:32.050Z,16.69
2022-08-21T01:14:32.074Z,16.59
2022-08-21T01:15:32.039Z,16.62
2022-08-21T01:16:32.078Z,16.51
2022-08-21T01:17:32.030Z,16.49
2022-08-21T01:18:32.026Z,16.51
2022-08-21T01:19:32.045Z,16.46
2022-08-21T01:20:32.402Z,16.36
2022-08-21T01:21:31.998Z,16.41
2022-08-21T01:22:31.999Z,16.32
2022-08-21T01:23:31.974Z,16.29
2022-08-21T01:24:31.997Z,16.31
2022-08-21T01:25:31.968Z,16.20
2022-08-21T01:26:34.012Z,16.25
2022-08-21T01:27:31.934Z,16.17
2022-08-21T01:28:31.928Z,16.15
2022-08-21T01:29:31.940Z,16.15
2022-08-21T01:30:31.908Z,16.06
2022-08-21T01:31:31.894Z,16.05
2022-08-21T01:32:31.895Z,16.17
2022-08-21T01:33:31.882Z,16.05
2022-08-21T01:34:31.907Z,16.00
2022-08-21T01:35:31.862Z,15.91
2022-08-21T01:36:31.851Z,15.91
2022-08-21T01:37:31.863Z,15.95
2022-08-21T01:38:31.840Z,15.80
2022-08-21T01:39:31.845Z,15.88
2022-08-21T01:40:31.853Z,15.80
2022-08-21T01:41:31.817Z,15.80
2022-08-21T01:42:31.803Z,15.76
2022-08-21T01:43:39.202Z,15.88
2022-08-21T01:44:32.799Z,15.73
2022-08-21T01:45:32.800Z,15.82
2022-08-21T01:46:32.783Z,15.77
2022-08-21T01:47:31.783Z,15.80
2022-08-21T01:48:31.758Z,15.76
2022-08-21T01:49:31.779Z,15.73
2022-08-21T01:50:31.777Z,15.83
2022-08-21T01:51:31.738Z,15.72
2022-08-21T01:52:31.729Z,15.77
2022-08-21T01:53:33.303Z,15.64
2022-08-21T01:54:31.705Z,15.76
2022-08-21T01:55:31.732Z,15.73
2022-08-21T01:56:31.688Z,15.64
2022-08-21T01:57:31.683Z,15.58
2022-08-21T01:58:31.676Z,15.61
2022-08-21T01:59:31.668Z,15.68
2022-08-21T02:00:31.683Z,15.57
2022-08-21T02:01:31.647Z,15.64
2022-08-21T02:02:31.651Z,15.55
2022-08-21T02:03:35.631Z,15.61
2022-08-21T02:04:31.631Z,15.52
2022-08-21T02:05:31.636Z,15.52
2022-08-21T02:06:32.605Z,15.54
2022-08-21T02:07:31.601Z,15.55
2022-08-21T02:08:31.591Z,15.54
2022-08-21T02:09:31.586Z,15.55
2022-08-21T02:10:31.603Z,15.50
2022-08-21T02:11:31.568Z,15.42
2022-08-21T02:12:31.569Z,15.30
2022-08-21T02:13:31.553Z,15.44
2022-08-21T02:14:32.764Z,15.44
2022-08-21T02:15:31.567Z,15.35
2022-08-21T02:16:31.539Z,15.48
2022-08-21T02:17:31.523Z,15.37
2022-08-21T02:18:31.524Z,15.36
2022-08-21T02:19:35.225Z,15.33
2022-08-21T02:20:32.520Z,15.30
2022-08-21T02:21:31.486Z,15.27
2022-08-21T02:22:31.472Z,15.30
2022-08-21T02:23:31.467Z,15.35
2022-08-21T02:24:31.454Z,15.33
2022-08-21T02:25:31.480Z,15.43
2022-08-21T02:26:31.451Z,15.43
2022-08-21T02:27:31.440Z,15.48
2022-08-21T02:28:31.423Z,15.54
2022-08-21T02:29:31.414Z,15.50
2022-08-21T02:30:31.437Z,15.44
2022-08-21T02:31:31.394Z,15.42
2022-08-21T02:32:31.397Z,15.46
2022-08-21T02:33:31.373Z,15.48
2022-08-21T02:34:31.381Z,15.35
2022-08-21T02:35:31.398Z,15.42
2022-08-21T02:36:31.357Z,15.40
2022-08-21T02:37:31.351Z,15.28
2022-08-21T02:38:31.339Z,15.22
2022-08-21T02:39:31.332Z,15.14
2022-08-21T02:40:31.346Z,15.09
2022-08-21T02:41:31.312Z,15.18
2022-08-21T02:42:31.328Z,15.06
2022-08-21T02:43:31.291Z,15.02
2022-08-21T02:44:34.790Z,15.03
2022-08-21T02:45:31.319Z,14.96
2022-08-21T02:46:31.268Z,15.00
2022-08-21T02:47:31.259Z,15.06
2022-08-21T02:48:31.254Z,14.99
2022-08-21T02:49:31.229Z,15.02
2022-08-21T02:50:32.266Z,14.91
2022-08-21T02:51:31.227Z,14.93
2022-08-21T02:52:31.215Z,14.97
2022-08-21T02:53:31.206Z,14.93
2022-08-21T02:54:31.203Z,14.87
2022-08-21T02:55:31.231Z,14.96
2022-08-21T02:56:31.594Z,14.96
2022-08-21T02:57:31.172Z,14.84
2022-08-21T02:58:31.167Z,14.85
2022-08-21T02:59:31.162Z,14.89
2022-08-21T03:00:31.151Z,14.85
2022-08-21T03:01:31.226Z,14.91
2022-08-21T03:02:31.138Z,14.85
2022-08-21T03:03:31.128Z,14.74
2022-08-21T03:04:31.115Z,14.84
2022-08-21T03:05:31.105Z,14.89
2022-08-21T03:06:31.126Z,14.93
2022-08-21T03:07:31.092Z,14.91
2022-08-21T03:08:31.087Z,14.97
2022-08-21T03:09:31.070Z,14.99
2022-08-21T03:10:32.093Z,14.97
2022-08-21T03:11:31.083Z,15.03
2022-08-21T03:12:31.053Z,14.97
2022-08-21T03:13:31.030Z,15.02
2022-08-21T03:14:32.035Z,14.99
2022-08-21T03:15:31.027Z,15.06
2022-08-21T03:16:34.747Z,15.09
2022-08-21T03:17:32.009Z,15.14
2022-08-21T03:18:30.998Z,15.14
2022-08-21T03:19:30.988Z,15.07
2022-08-21T03:20:30.985Z,15.11
2022-08-21T03:21:31.009Z,15.21
2022-08-21T03:22:31.086Z,15.17
2022-08-21T03:23:32.754Z,15.09
2022-08-21T03:24:30.952Z,15.22
2022-08-21T03:25:40.354Z,15.22
2022-08-21T03:26:31.950Z,15.21
2022-08-21T03:27:30.922Z,15.37
2022-08-21T03:28:30.909Z,15.33
2022-08-21T03:29:30.909Z,15.39
2022-08-21T03:30:30.899Z,15.43
2022-08-21T03:31:30.919Z,15.46
2022-08-21T03:32:30.885Z,15.44
2022-08-21T03:33:30.871Z,15.48
2022-08-21T03:34:30.862Z,15.54
2022-08-21T03:35:30.852Z,15.55
2022-08-21T03:36:30.874Z,15.65
2022-08-21T03:37:30.831Z,15.75
2022-08-21T03:38:30.832Z,15.73
2022-08-21T03:39:30.826Z,15.69
2022-08-21T03:40:30.812Z,15.68
2022-08-21T03:41:30.845Z,15.73
2022-08-21T03:42:30.794Z,15.72
2022-08-21T03:43:31.231Z,15.75
2022-08-21T03:44:30.793Z,15.77
2022-08-21T03:45:30.771Z,15.73
2022-08-21T03:46:30.789Z,15.72
2022-08-21T03:47:30.755Z,15.82
2022-08-21T03:48:30.742Z,15.70
2022-08-21T03:49:30.746Z,15.76
2022-08-21T03:50:30.736Z,15.73
2022-08-21T03:51:30.755Z,15.75
2022-08-21T03:52:30.727Z,15.83
2022-08-21T03:53:30.701Z,15.90
2022-08-21T03:54:30.706Z,15.92
2022-08-21T03:55:30.695Z,15.90
2022-08-21T03:56:30.720Z,15.79
2022-08-21T03:57:30.680Z,15.85
2022-08-21T03:58:30.672Z,15.87
2022-08-21T03:59:30.665Z,15.87
2022-08-21T04:00:30.650Z,15.72
2022-08-21T04:01:30.722Z,15.76
2022-08-21T04:02:30.633Z,15.58
2022-08-21T04:03:30.623Z,15.51
2022-08-21T04:04:30.631Z,15.39
2022-08-21T04:05:30.626Z,15.35
2022-08-21T04:06:34.548Z,15.35
2022-08-21T04:07:31.588Z,15.36
2022-08-21T04:08:30.588Z,15.39
2022-08-21T04:09:30.583Z,15.39
2022-08-21T04:10:30.566Z,15.43
2022-08-21T04:11:30.599Z,15.39
2022-08-21T04:12:30.563Z,15.30
2022-08-21T04:13:30.552Z,15.30
2022-08-21T04:14:30.536Z,15.33
2022-08-21T04:15:30.531Z,15.37
2022-08-21T04:16:30.538Z,15.22
2022-08-21T04:17:30.544Z,15.33
2022-08-21T04:18:30.500Z,15.25
2022-08-21T04:19:30.500Z,15.24
2022-08-21T04:20:30.489Z,15.33
2022-08-21T04:21:30.480Z,15.30
2022-08-21T04:22:30.508Z,15.22
2022-08-21T04:23:30.467Z,15.22
2022-08-21T04:24:30.454Z,15.21
2022-08-21T04:25:30.452Z,15.15
2022-08-21T04:26:30.441Z,15.28
2022-08-21T04:27:30.459Z,15.24
2022-08-21T04:28:31.265Z,15.36
2022-08-21T04:29:30.417Z,15.39
2022-08-21T04:30:30.403Z,15.39
2022-08-21T04:31:30.403Z,15.35
2022-08-21T04:32:30.423Z,15.40
2022-08-21T04:33:30.378Z,15.40
2022-08-21T04:34:30.375Z,15.50
2022-08-21T04:35:30.370Z,15.55
2022-08-21T04:36:30.366Z,15.50
2022-08-21T04:37:30.389Z,15.44
2022-08-21T04:38:36.476Z,15.48
2022-08-21T04:39:31.336Z,15.48
2022-08-21T04:40:30.397Z,15.50
2022-08-21T04:41:30.310Z,15.50
2022-08-21T04:42:30.340Z,15.54
2022-08-21T04:43:30.296Z,15.51
2022-08-21T04:44:30.290Z,15.44
2022-08-21T04:45:30.288Z,15.54
2022-08-21T04:46:30.280Z,15.46
2022-08-21T04:47:41.756Z,15.46
2022-08-21T04:48:31.261Z,15.48
2022-08-21T04:49:30.256Z,15.54
2022-08-21T04:50:30.246Z,15.48
2022-08-21T04:51:30.925Z,15.51
2022-08-21T04:52:30.256Z,15.44
2022-08-21T04:53:30.229Z,15.61
2022-08-21T04:54:30.215Z,15.52
2022-08-21T04:55:30.202Z,15.58
2022-08-21T04:56:30.191Z,15.60
2022-08-21T04:57:47.386Z,15.54
2022-08-21T04:58:31.181Z,15.51
2022-08-21T04:59:30.170Z,15.50
2022-08-21T05:00:30.155Z,15.44
2022-08-21T05:01:30.222Z,15.61
2022-08-21T05:02:30.192Z,15.58
2022-08-21T05:03:30.129Z,15.55
2022-08-21T05:04:30.121Z,15.57
2022-08-21T05:05:30.162Z,15.57
2022-08-21T05:06:30.114Z,15.48
2022-08-21T05:07:42.352Z,15.44
2022-08-21T05:08:31.084Z,15.40
2022-08-21T05:09:31.089Z,15.36
2022-08-21T05:10:30.084Z,15.36
2022-08-21T05:11:30.071Z,15.39
2022-08-21T05:12:30.261Z,15.48
2022-08-21T05:13:30.090Z,15.60
2022-08-21T05:14:30.041Z,15.70
2022-08-21T05:15:30.053Z,15.68
2022-08-21T05:16:30.177Z,15.68
2022-08-21T05:17:31.054Z,15.69
2022-08-21T05:18:30.024Z,15.73
2022-08-21T05:19:30.004Z,15.65
2022-08-21T05:20:44.829Z,15.72
2022-08-21T05:21:29.992Z,15.72
2022-08-21T05:22:29.999Z,15.64
2022-08-21T05:23:29.998Z,15.83
2022-08-21T05:24:29.962Z,15.73
2022-08-21T05:25:29.954Z,15.85
2022-08-21T05:26:29.944Z,15.98
2022-08-21T05:27:29.939Z,16.00
2022-08-21T05:28:29.969Z,15.98
2022-08-21T05:29:29.921Z,16.00
2022-08-21T05:30:29.936Z,15.98
2022-08-21T05:31:29.914Z,16.01
2022-08-21T05:32:29.898Z,16.08
2022-08-21T05:33:29.911Z,16.15
2022-08-21T05:34:29.878Z,16.10
2022-08-21T05:35:29.873Z,16.15
2022-08-21T05:36:29.861Z,16.15
2022-08-21T05:37:29.851Z,16.25
2022-08-21T05:38:29.871Z,16.17
2022-08-21T05:39:29.831Z,16.08
2022-08-21T05:40:30.860Z,16.12
2022-08-21T05:41:29.824Z,16.21
2022-08-21T05:42:29.801Z,16.36
2022-08-21T05:43:29.822Z,16.49
2022-08-21T05:44:29.789Z,16.54
2022-08-21T05:45:42.302Z,16.57
2022-08-21T05:46:31.788Z,16.65
2022-08-21T05:47:29.778Z,16.53
2022-08-21T05:48:29.784Z,16.56
2022-08-21T05:49:29.747Z,16.54
2022-08-21T05:50:33.531Z,16.49
2022-08-21T05:51:30.744Z,16.53
2022-08-21T05:52:29.719Z,16.65
2022-08-21T05:53:29.789Z,16.66
2022-08-21T05:54:29.714Z,16.76
2022-08-21T05:55:29.706Z,16.71
2022-08-21T05:56:29.692Z,16.82
2022-08-21T05:57:29.688Z,16.80
2022-08-21T05:58:29.703Z,16.69
2022-08-21T05:59:29.671Z,16.69
2022-08-21T06:00:29.712Z,16.80
2022-08-21T06:01:29.700Z,16.82
2022-08-21T06:02:29.660Z,16.96
2022-08-21T06:03:29.661Z,17.08
2022-08-21T06:04:29.618Z,17.01
2022-08-21T06:05:36.710Z,17.08
2022-08-21T06:06:30.624Z,17.01
2022-08-21T06:07:29.598Z,17.02
2022-08-21T06:08:29.627Z,16.87
2022-08-21T06:09:29.596Z,16.89
2022-08-21T06:10:29.584Z,17.01
2022-08-21T06:11:29.565Z,17.09
2022-08-21T06:12:29.560Z,16.86
2022-08-21T06:13:29.580Z,16.96
2022-08-21T06:14:29.542Z,16.82
2022-08-21T06:15:29.537Z,16.94
2022-08-21T06:16:29.528Z,16.83
2022-08-21T06:17:29.515Z,16.87
2022-08-21T06:18:29.545Z,16.83
2022-08-21T06:19:29.502Z,16.96
2022-08-21T06:20:29.493Z,17.04
2022-08-21T06:21:29.483Z,17.14
2022-08-21T06:22:29.492Z,17.04
2022-08-21T06:23:33.371Z,16.93
2022-08-21T06:24:29.481Z,16.89
2022-08-21T06:25:29.452Z,16.80
2022-08-21T06:26:29.452Z,16.68
2022-08-21T06:27:29.451Z,16.64
2022-08-21T06:28:29.455Z,16.71
2022-08-21T06:29:29.427Z,16.69
2022-08-21T06:30:30.412Z,16.83
2022-08-21T06:31:29.436Z,16.94
2022-08-21T06:32:29.400Z,16.98
2022-08-21T06:33:32.723Z,16.98
2022-08-21T06:34:30.381Z,16.96
2022-08-21T06:35:29.379Z,17.02
2022-08-21T06:36:29.369Z,17.04
2022-08-21T06:37:29.361Z,17.01
2022-08-21T06:38:56.973Z,17.24
2022-08-21T06:39:32.348Z,17.26
2022-08-21T06:40:29.994Z,17.27
2022-08-21T06:41:29.322Z,17.26
2022-08-21T06:42:29.316Z,17.29
2022-08-21T06:43:39.734Z,17.42
2022-08-21T06:44:30.300Z,17.57
2022-08-21T06:45:31.691Z,17.73
2022-08-21T06:46:29.292Z,17.71
2022-08-21T06:47:29.273Z,17.68
2022-08-21T06:48:29.309Z,17.70
2022-08-21T06:49:29.269Z,17.83
2022-08-21T06:50:29.241Z,17.98
2022-08-21T06:51:29.270Z,18.09
2022-08-21T06:52:29.233Z,18.23
2022-08-21T06:53:29.253Z,18.26
2022-08-21T06:54:29.215Z,18.40
2022-08-21T06:55:29.395Z,18.48
2022-08-21T06:56:30.228Z,18.09
2022-08-21T06:57:29.189Z,18.26
2022-08-21T06:58:29.210Z,18.38
2022-08-21T06:59:29.175Z,18.40
2022-08-21T07:00:29.163Z,18.31
2022-08-21T07:01:29.230Z,18.16
2022-08-21T07:02:29.149Z,18.12
2022-08-21T07:03:29.176Z,18.04
2022-08-21T07:04:29.132Z,18.07
2022-08-21T07:05:29.141Z,18.04
2022-08-21T07:06:29.118Z,18.15
2022-08-21T07:07:29.105Z,18.07
2022-08-21T07:08:29.129Z,18.25
2022-08-21T07:09:29.093Z,18.37
2022-08-21T07:10:29.088Z,18.41
2022-08-21T07:11:29.077Z,18.41
2022-08-21T07:12:29.066Z,18.52
2022-08-21T07:13:29.104Z,18.55
2022-08-21T07:14:29.047Z,18.58
2022-08-21T07:15:29.041Z,18.44
2022-08-21T07:16:29.032Z,18.50
2022-08-21T07:17:29.018Z,18.44
2022-08-21T07:18:29.050Z,18.50
2022-08-21T07:19:29.009Z,18.59
2022-08-21T07:20:29.007Z,18.67
2022-08-21T07:21:28.993Z,18.77
2022-08-21T07:22:28.991Z,18.55
2022-08-21T07:23:29.011Z,18.58
2022-08-21T07:24:28.973Z,18.40
2022-08-21T07:25:28.966Z,18.50
2022-08-21T07:26:28.964Z,18.60
2022-08-21T07:27:28.952Z,18.59
2022-08-21T07:28:28.969Z,18.41
2022-08-21T07:29:28.954Z,18.56
2022-08-21T07:30:28.924Z,18.66
2022-08-21T07:31:28.928Z,18.77
2022-08-21T07:32:28.911Z,18.81
2022-08-21T07:33:28.930Z,18.89
2022-08-21T07:34:28.894Z,19.08
2022-08-21T07:35:28.884Z,19.14
2022-08-21T07:36:28.901Z,19.11
2022-08-21T07:37:28.861Z,19.36
2022-08-21T07:38:28.880Z,19.54
2022-08-21T07:39:28.845Z,19.67
2022-08-21T07:40:28.839Z,19.69
2022-08-21T07:41:28.835Z,19.86
2022-08-21T07:42:28.821Z,19.96
2022-08-21T07:43:28.850Z,20.15
2022-08-21T07:44:28.825Z,20.24
2022-08-21T07:45:28.798Z,20.22
2022-08-21T07:46:28.796Z,20.37
2022-08-21T07:47:41.638Z,20.56
2022-08-21T07:48:29.800Z,20.56
2022-08-21T07:49:28.768Z,20.82
2022-08-21T07:50:28.766Z,21.06
2022-08-21T07:51:28.755Z,21.18
2022-08-21T07:52:31.911Z,21.43
2022-08-21T07:53:28.771Z,21.85
2022-08-21T07:54:33.926Z,22.13
2022-08-21T07:55:29.721Z,22.41
2022-08-21T07:56:28.711Z,23.03
2022-08-21T07:57:28.706Z,23.66
2022-08-21T07:58:28.730Z,23.71
2022-08-21T07:59:28.687Z,24.10
2022-08-21T08:00:28.681Z,24.44
2022-08-21T08:01:28.719Z,24.91
2022-08-21T08:02:28.669Z,25.32
2022-08-21T08:03:29.393Z,25.29
2022-08-21T08:04:28.645Z,25.74
2022-08-21T08:05:29.641Z,25.65
2022-08-21T08:06:28.632Z,25.15
2022-08-21T08:07:28.623Z,25.19
2022-08-21T08:08:28.799Z,25.56
2022-08-21T08:09:28.602Z,26.18
2022-08-21T08:10:28.610Z,26.20
2022-08-21T08:11:28.598Z,26.53
2022-08-21T08:12:28.609Z,26.97
2022-08-21T08:13:28.582Z,27.42
2022-08-21T08:14:31.455Z,27.45
2022-08-21T08:15:28.560Z,27.67
2022-08-21T08:16:28.546Z,27.71
2022-08-21T08:17:28.551Z,28.04
2022-08-21T08:18:28.564Z,28.19
2022-08-21T08:19:28.530Z,28.26
2022-08-21T08:20:28.523Z,28.97
2022-08-21T08:21:28.515Z,29.07
2022-08-21T08:22:28.510Z,29.11
2022-08-21T08:23:28.524Z,29.21
2022-08-21T08:24:28.492Z,28.94
2022-08-21T08:25:28.489Z,28.75
2022-08-21T08:26:29.475Z,28.49
2022-08-21T08:27:28.475Z,28.58
2022-08-21T08:28:28.495Z,29.62
2022-08-21T08:29:28.464Z,29.57
2022-08-21T08:30:32.564Z,29.57
2022-08-21T08:31:29.448Z,29.83
2022-08-21T08:32:28.432Z,29.90
2022-08-21T08:33:28.465Z,30.20
2022-08-21T08:34:28.421Z,30.25
2022-08-21T08:35:28.421Z,29.92
2022-08-21T08:36:28.428Z,29.90
2022-08-21T08:37:31.505Z,30.21
2022-08-21T08:38:29.411Z,30.32
2022-08-21T08:39:29.707Z,30.31
2022-08-21T08:40:28.390Z,30.67
2022-08-21T08:41:30.830Z,31.18
2022-08-21T08:42:32.850Z,30.97
2022-08-21T08:43:29.379Z,30.91
2022-08-21T08:44:30.461Z,31.56
2022-08-21T08:45:28.342Z,31.43
2022-08-21T08:46:28.330Z,31.60
2022-08-21T08:47:28.327Z,31.82
2022-08-21T08:48:28.350Z,31.52
2022-08-21T08:49:28.325Z,31.29
2022-08-21T08:50:28.306Z,30.88
2022-08-21T08:51:28.297Z,30.43
2022-08-21T08:52:28.293Z,30.12
2022-08-21T08:53:28.330Z,30.84
2022-08-21T08:54:28.280Z,31.14
2022-08-21T08:55:28.268Z,30.39
2022-08-21T08:56:28.274Z,30.44
2022-08-21T08:57:28.251Z,30.75
2022-08-21T08:58:28.249Z,30.25
2022-08-21T08:59:28.272Z,30.40
2022-08-21T09:00:28.226Z,30.25
2022-08-21T09:01:28.247Z,31.52
2022-08-21T09:02:28.223Z,32.06
2022-08-21T09:03:28.215Z,31.22
2022-08-21T09:04:28.254Z,30.81
2022-08-21T09:05:28.200Z,31.43
2022-08-21T09:06:30.928Z,31.46
2022-08-21T09:07:28.176Z,30.52
2022-08-21T09:08:28.194Z,29.16
2022-08-21T09:09:28.218Z,29.78
2022-08-21T09:10:28.171Z,30.29
2022-08-21T09:11:28.166Z,30.24
2022-08-21T09:12:28.163Z,29.75
2022-08-21T09:13:28.143Z,29.83
2022-08-21T09:14:28.168Z,29.20
2022-08-21T09:15:28.126Z,29.65
2022-08-21T09:16:28.127Z,28.95
2022-08-21T09:17:37.106Z,28.27
2022-08-21T09:18:28.119Z,28.14
2022-08-21T09:19:28.133Z,29.10
2022-08-21T09:20:28.099Z,30.12
2022-08-21T09:21:28.103Z,30.89
2022-08-21T09:22:28.085Z,30.96
2022-08-21T09:23:28.079Z,31.38
2022-08-21T09:24:28.098Z,31.11
2022-08-21T09:25:28.071Z,31.53
2022-08-21T09:26:28.050Z,32.37
2022-08-21T09:27:28.054Z,33.09
2022-08-21T09:28:28.042Z,33.08
2022-08-21T09:29:28.061Z,32.83
2022-08-21T09:30:28.031Z,32.40
2022-08-21T09:31:28.025Z,32.75
2022-08-21T09:32:36.996Z,31.86
2022-08-21T09:33:28.008Z,30.18
2022-08-21T09:34:28.034Z,29.17
2022-08-21T09:35:27.994Z,29.50
2022-08-21T09:36:27.983Z,29.41
2022-08-21T09:37:27.989Z,29.10
2022-08-21T09:38:27.984Z,29.19
2022-08-21T09:39:28.005Z,29.97
2022-08-21T09:40:28.029Z,28.75
2022-08-21T09:41:27.960Z,27.68
2022-08-21T09:42:27.953Z,27.61
2022-08-21T09:43:27.947Z,27.72
2022-08-21T09:44:27.995Z,27.77
2022-08-21T09:45:27.946Z,28.63
2022-08-21T09:46:28.920Z,29.63
2022-08-21T09:47:27.920Z,30.63
2022-08-21T09:48:33.001Z,31.58
2022-08-21T09:49:28.923Z,31.89
2022-08-21T09:50:27.889Z,31.81
2022-08-21T09:51:27.900Z,29.95
2022-08-21T09:52:27.884Z,29.46
2022-08-21T09:53:31.499Z,29.13
2022-08-21T09:54:28.890Z,28.76
2022-08-21T09:55:27.857Z,28.36
2022-08-21T09:56:27.858Z,28.07
2022-08-21T09:57:27.849Z,29.07
2022-08-21T09:59:18.447Z,30.32
2022-08-21T09:59:27.833Z,30.91
2022-08-21T10:00:27.827Z,31.59
2022-08-21T10:01:27.868Z,32.11
2022-08-21T10:02:27.810Z,32.86
2022-08-21T10:03:27.801Z,33.18
2022-08-21T10:04:27.824Z,34.20
2022-08-21T10:05:27.794Z,34.30
2022-08-21T10:06:27.794Z,34.08
2022-08-21T10:07:27.792Z,33.90
2022-08-21T10:08:27.773Z,33.16
2022-08-21T10:09:27.814Z,32.01
2022-08-21T10:10:27.773Z,31.37
2022-08-21T10:11:27.767Z,30.69
2022-08-21T10:12:27.756Z,30.16
2022-08-21T10:13:27.755Z,29.48
2022-08-21T10:14:27.772Z,28.04
2022-08-21T10:15:27.730Z,27.58
2022-08-21T10:16:27.748Z,27.45
2022-08-21T10:17:27.715Z,27.55
2022-08-21T10:18:27.717Z,27.33
2022-08-21T10:19:27.754Z,27.05
2022-08-21T10:20:27.698Z,26.48
2022-08-21T10:21:27.697Z,25.97
2022-08-21T10:22:27.677Z,25.75
2022-08-21T10:23:27.677Z,25.92
2022-08-21T10:24:31.702Z,25.81
2022-08-21T10:25:27.669Z,26.00
2022-08-21T10:26:27.651Z,25.84
2022-08-21T10:27:27.634Z,25.56
2022-08-21T10:28:27.622Z,25.28
2022-08-21T10:29:27.664Z,25.10
2022-08-21T10:30:27.626Z,24.85
2022-08-21T10:31:27.624Z,24.62
2022-08-21T10:32:27.596Z,24.65
2022-08-21T10:33:27.590Z,24.89
2022-08-21T10:34:48.413Z,25.13
2022-08-21T10:35:27.575Z,25.30
2022-08-21T10:36:27.564Z,25.53
2022-08-21T10:37:30.380Z,25.73
2022-08-21T10:38:48.711Z,26.45
2022-08-21T10:39:35.641Z,27.58
2022-08-21T10:40:28.538Z,28.69
2022-08-21T10:41:27.529Z,29.84
2022-08-21T10:42:28.547Z,30.63
2022-08-21T10:43:28.571Z,31.24
2022-08-21T10:44:27.566Z,32.34
2022-08-21T10:45:27.495Z,32.75
2022-08-21T10:46:27.489Z,32.75
2022-08-21T10:47:40.321Z,32.68
2022-08-21T10:48:27.484Z,32.98
2022-08-21T10:49:27.494Z,33.66
2022-08-21T10:50:27.450Z,34.55
2022-08-21T10:51:29.255Z,35.01
2022-08-21T10:52:27.455Z,35.79
2022-08-21T10:53:27.442Z,36.15
2022-08-21T10:54:27.492Z,35.87
2022-08-21T10:55:27.423Z,35.16
2022-08-21T10:56:27.419Z,34.29
2022-08-21T10:57:32.308Z,34.34
2022-08-21T10:58:28.406Z,34.40
2022-08-21T10:59:27.430Z,34.91
2022-08-21T11:00:27.407Z,34.82
2022-08-21T11:01:27.384Z,34.20
2022-08-21T11:02:27.373Z,33.49
2022-08-21T11:03:27.381Z,33.49
2022-08-21T11:04:29.929Z,33.68
2022-08-21T11:05:28.355Z,34.24
2022-08-21T11:06:27.361Z,34.29
2022-08-21T11:07:27.357Z,34.75
2022-08-21T11:08:27.333Z,35.05
2022-08-21T11:09:27.364Z,35.24
2022-08-21T11:10:27.326Z,35.20
2022-08-21T11:11:29.756Z,35.40
2022-08-21T11:12:28.308Z,35.21
2022-08-21T11:13:31.254Z,35.31
2022-08-21T11:14:27.328Z,34.22
2022-08-21T11:15:28.945Z,33.29
2022-08-21T11:16:27.292Z,33.11
2022-08-21T11:17:27.287Z,33.56
2022-08-21T11:18:27.297Z,32.93
2022-08-21T11:19:27.325Z,32.27
2022-08-21T11:20:27.275Z,31.96
2022-08-21T11:21:27.249Z,32.38
2022-08-21T11:22:27.245Z,33.61
2022-08-21T11:23:27.236Z,34.59
2022-08-21T11:24:27.263Z,34.86
2022-08-21T11:25:27.244Z,35.18
2022-08-21T11:26:28.233Z,35.99
2022-08-21T11:27:27.248Z,35.99
2022-08-21T11:28:27.223Z,35.43
2022-08-21T11:29:27.252Z,35.09
2022-08-21T11:30:27.190Z,34.33
2022-08-21T11:31:27.194Z,33.62
2022-08-21T11:32:27.178Z,33.27
2022-08-21T11:33:30.074Z,32.35
2022-08-21T11:34:27.230Z,31.25
2022-08-21T11:35:27.188Z,31.22
2022-08-21T11:36:27.156Z,31.29
2022-08-21T11:37:27.169Z,31.73
2022-08-21T11:38:27.160Z,32.47
2022-08-21T11:39:27.161Z,33.46
2022-08-21T11:40:27.153Z,34.12
2022-08-21T11:41:27.123Z,34.55
2022-08-21T11:42:27.124Z,35.06
2022-08-21T11:43:27.110Z,35.08
2022-08-21T11:44:27.146Z,34.84
2022-08-21T11:45:28.154Z,34.40
2022-08-21T11:46:27.089Z,34.29
2022-08-21T11:47:27.082Z,34.10
2022-08-21T11:48:27.111Z,34.56
2022-08-21T11:49:27.122Z,34.55
2022-08-21T11:50:34.885Z,34.61
2022-08-21T11:51:28.055Z,34.56
2022-08-21T11:52:27.072Z,34.55
2022-08-21T11:53:27.057Z,34.78
2022-08-21T11:54:27.092Z,34.99
2022-08-21T11:55:27.037Z,34.91
2022-08-21T11:56:27.056Z,34.63
2022-08-21T11:57:27.064Z,34.29
2022-08-21T11:58:27.018Z,33.83
2022-08-21T11:59:27.045Z,33.77
2022-08-21T12:00:27.006Z,33.68
2022-08-21T12:01:26.996Z,34.39
2022-08-21T12:02:27.030Z,34.61
2022-08-21T12:03:26.980Z,35.26
2022-08-21T12:04:26.971Z,35.68
2022-08-21T12:05:27.032Z,34.52
2022-08-21T12:06:29.854Z,33.90
2022-08-21T12:07:26.962Z,34.02
2022-08-21T12:08:26.953Z,34.17
2022-08-21T12:09:26.934Z,34.66
2022-08-21T12:10:27.969Z,34.45
2022-08-21T12:11:30.670Z,34.52
2022-08-21T12:12:26.927Z,34.96
2022-08-21T12:13:40.340Z,34.82
2022-08-21T12:14:34.955Z,34.83
2022-08-21T12:15:27.931Z,34.93
2022-08-21T12:16:26.931Z,35.55
2022-08-21T12:17:29.600Z,35.98
2022-08-21T12:18:26.874Z,35.16
2022-08-21T12:19:26.889Z,35.60
2022-08-21T12:20:26.901Z,35.53
2022-08-21T12:21:26.860Z,35.39
2022-08-21T12:22:26.857Z,34.72
2022-08-21T12:23:26.849Z,34.24
2022-08-21T12:24:27.823Z,34.39
2022-08-21T12:25:26.847Z,35.01
2022-08-21T12:26:26.832Z,34.91
2022-08-21T12:27:26.846Z,33.81
2022-08-21T12:28:26.820Z,33.81
2022-08-21T12:29:26.853Z,33.85
2022-08-21T12:30:27.406Z,33.17
2022-08-21T12:31:26.800Z,33.16
2022-08-21T12:32:26.789Z,32.65
2022-08-21T12:33:26.798Z,31.60
2022-08-21T12:34:26.838Z,30.60
2022-08-21T12:35:26.783Z,31.33
2022-08-21T12:36:26.780Z,32.40
2022-08-21T12:37:26.762Z,33.29
2022-08-21T12:38:26.756Z,34.12
2022-08-21T12:39:26.800Z,34.61
2022-08-21T12:40:26.737Z,34.71
2022-08-21T12:41:26.735Z,34.52
2022-08-21T12:42:26.752Z,34.10
2022-08-21T12:43:26.708Z,33.27
2022-08-21T12:44:27.760Z,32.71
2022-08-21T12:45:26.713Z,32.83
2022-08-21T12:46:26.710Z,32.79
2022-08-21T12:47:28.235Z,33.37
2022-08-21T12:48:26.700Z,34.20
2022-08-21T12:49:26.959Z,34.61
2022-08-21T12:50:27.715Z,34.83
2022-08-21T12:51:26.674Z,34.99
2022-08-21T12:52:26.674Z,34.27